Archival Weather

Central Park

Central Park, New York (KNYC)

Report from: Thursday, September 21, 2023 7:51 PM EDT
Current time: Sunday, February 25, 2024 4:31 PM EST

Current weather – Weather history – Daily summaries
Weather forecast

Temperature18.9°C (66.0°F)
Dew point11.1°C (52.0°F)
Winds 3 kts (1.5 m/s, 3.5 mph) Vrb
Winds variableWinds variable
Visibility10 mi. (16.1 km)
Clouds Sky clear
Altimeter30.30 in.Hg (1026 mB)
Relative humidity61 %
Density altitude246 ft. (75 m)
Sea-level pressure102.5 kPa (1025 mB, 30.27 in.Hg)
Max temp last 6 hours21.7°C (71.1°F)
Min temp last 6 hours18.9°C (66.0°F)
Remarks Fully automated report
System requires maintenance
Automated weather observing station with precipitation discriminator
Pressure rising more quickly
Flight conditions Visual Meteorological Conditions
Raw dataKNYC 212351Z AUTO VRB03KT 10SM CLR 19/11 A3030 RMK AO2 SLP251 T01890111 10217 20189 53004 $
An error has occurred. This application may no longer respond until reloaded. Reload 🗙